Meteo Giornale » Osservazioni meteo Stati Uniti (USA) » Appleton-Outagamie
ore: 09:45 - Osservazioni Meteo Appleton-Outagamie
Lat. 44° 15' N Lon. 88° 31' W Alt. 280 metri s.l.m.
26 °C
Foschia
Temp. 24 Ore
23 °C
33 °C
Nord
0 Km/h
Dew point 25 °C
Umidità 94 %
Visibilità 8 Km
Il sole sorge alle ore 06:17
Il sole tramonta alle ore 19:30
| Data e Ora | Cielo e Fenomeni | T °C | DP °C | Um. % | Pres. hPa | Vis. km | Vento km/h | |
|---|---|---|---|---|---|---|---|---|
| Oggi h: 09:45 | Foschia | 26 | 25 | 94 | 1014 | 8 | N 0 | |
| Oggi h: 09:15 | Foschia | 25 | 24 | 94 | 1014 | 2 | N 0 | |
| Oggi h: 08:45 | Nebbia | 24 | 24 | 100 | 1014 | 2 | N 0 | |
| Oggi h: 08:15 | Foschia | 24 | 24 | 100 | 1014 | 2 | N 5.5 | |
| Oggi h: 07:45 | Foschia | 24 | 24 | 100 | 1014 | 6 | N 0 | |
| Oggi h: 07:05 | Foschia | 23 | 23 | 100 | 1014 | 6 | N 0 | |
| Oggi h: 06:45 | Foschia | 23 | 23 | 100 | 1014 | 5 | N 0 | |
| Oggi h: 05:45 | Foschia | 23 | 23 | 100 | 1013 | 6 | O 13 | |
| Oggi h: 05:30 | Sereno | 23 | 23 | 100 | 1013 | 11 | O 13 | |
| Oggi h: 05:15 | Sereno | 23 | 23 | 100 | 1013 | 11 | O 13 | |
| Oggi h: 04:55 | Sereno | 23 | 23 | 100 | 1012 | 11 | O 9.3 | |
| Oggi h: 04:35 | Sereno | 23 | 23 | 100 | 1013 | 11 | O 11.1 | |
| Oggi h: 04:15 | Sereno | 23 | 23 | 100 | 1013 | 11 | O 11.1 | |
| Oggi h: 03:55 | Sereno | 23 | 23 | 100 | 1013 | 10 | O 13 | |
| Oggi h: 03:35 | Sereno | 24 | 23 | 94 | 1013 | 10 | O 13 | |
| Oggi h: 03:15 | Nuvoloso | 24 | 23 | 94 | 1012 | 10 | O 13 | |
| Oggi h: 02:55 | Molto Nuvoloso | 25 | 23 | 88 | 1012 | 10 | O 11.1 | |
| Oggi h: 02:35 | Sereno | 25 | 23 | 88 | 1012 | 10 | O 13 | |
| Oggi h: 02:15 | Nuvoloso | 25 | 23 | 88 | 1012 | 10 | O/SO 13 | |
| Oggi h: 01:55 | Sereno | 25 | 23 | 88 | 1012 | 10 | O/SO 13 | |
| Oggi h: 01:35 | Sereno | 24 | 23 | 94 | 1012 | 10 | O/SO 9.3 | |
| Oggi h: 01:15 | Sereno | 25 | 23 | 88 | 1012 | 10 | O/SO 9.3 | |
| Oggi h: 00:55 | Sereno | 25 | 23 | 88 | 1013 | 10 | O/SO 11.1 | |
| Oggi h: 00:35 | Sereno | 23 | 23 | 100 | 1012 | 10 | N 5.5 | |
| Oggi h: 00:15 | Sereno | 24 | 23 | 94 | 1012 | 10 | SO 7.4 | |
| Ieri h: 23:55 | Sereno | 25 | 23 | 88 | 1012 | 10 | O/SO 7.4 | |
| Ieri h: 23:35 | Sereno | 25 | 23 | 88 | 1012 | 10 | N 5.5 | |
| Ieri h: 23:15 | Sereno | 25 | 23 | 88 | 1012 | 10 | SO 7.4 | |
| Ieri h: 22:55 | Sereno | 25 | 24 | 94 | 1012 | 10 | SO 9.3 | |
| Ieri h: 22:45 | Nuvoloso | 26 | 24 | 88 | 1012 | 10 | SO 9.3 | |
| Ieri h: 21:45 | Nuvoloso | 26 | 24 | 88 | 1012 | 10 | SO 9.3 | |
| Ieri h: 20:45 | Nuvoloso | 28 | 24 | 78 | 1012 | 10 | O/SO 11.1 | |
| Ieri h: 19:45 | Molto Nuvoloso | 28 | 24 | 78 | 1012 | 10 | SO 14.8 | |
| Ieri h: 18:45 | Molto Nuvoloso | 30 | 25 | 74 | 1011 | 10 | SO 14.8 | |
| Ieri h: 17:45 | Molto Nuvoloso | 31 | 25 | 70 | 1011 | 10 | S/SO 9.3 | |
| Ieri h: 16:45 | Molto Nuvoloso | 32 | 24 | 62 | 1011 | 10 | O/SO 9.3 | |
| Ieri h: 15:45 | Nuvoloso | 33 | 24 | 59 | 1010 | 10 | O 13 | |
| Ieri h: 14:45 | Nuvoloso | 32 | 24 | 62 | 1010 | 10 | O 11.1 | |
| Ieri h: 13:45 | Nuvoloso | 32 | 23 | 59 | 1011 | 10 | O/SO 14.8 | |
| Ieri h: 12:45 | Nuvoloso | 31 | 22 | 58 | 1011 | 10 | O/SO 14.8 | |
| Ieri h: 11:45 | Nuvoloso | 30 | 22 | 62 | 1011 | 10 | O 13 | |
| Ieri h: 10:45 | Nuvoloso | 28 | 22 | 69 | 1011 | 10 | O/SO 14.8 | |



